WRC320 LOWI-LIRA
Flight info
| Callsign | WRC320 |
|---|---|
| Flight time | N/A |
| Altitude | 32000 |
| Route | BRENO M726 SUMIR DCT DIPVO Y106 GITOD |
| Aircraft | A320/M-SDE3FGHIRWY/LB1 |
Departure
| Time | N/A |
|---|---|
| Airport | Innsbruck Airport (LOWI) |
Arrival
| Time | 2026-04-30 18:17 |
|---|---|
| Airport | Ciampino–G. B. Pastine International Airport (LIRA) |
| Time | Latitude | Longitude | Altitude | Speed | Heading |
|---|---|---|---|---|---|
| 2026-04-30 17:39 | 43.39661 | 12.19500 | 31678 ft | 459 kts | 188° |
| 2026-04-30 17:41 | 43.14446 | 12.18428 | 26843 ft | 442 kts | 187° |
| 2026-04-30 17:42 | 43.08322 | 12.18224 | 25763 ft | 440 kts | 180° |
| 2026-04-30 17:42 | 42.99482 | 12.21564 | 24254 ft | 439 kts | 162° |
| 2026-04-30 17:43 | 42.93763 | 12.24368 | 23183 ft | 434 kts | 162° |
| 2026-04-30 17:44 | 42.85355 | 12.28482 | 21697 ft | 423 kts | 162° |
| 2026-04-30 17:44 | 42.77557 | 12.33055 | 21148 ft | 391 kts | 150° |
| 2026-04-30 17:46 | 42.66292 | 12.42050 | 18665 ft | 367 kts | 150° |
| 2026-04-30 17:47 | 42.57607 | 12.48958 | 16202 ft | 350 kts | 150° |
| 2026-04-30 17:48 | 42.49420 | 12.55444 | 14119 ft | 331 kts | 150° |
| 2026-04-30 17:48 | 42.44218 | 12.59556 | 12876 ft | 320 kts | 149° |
| 2026-04-30 17:49 | 42.35888 | 12.62291 | 11298 ft | 311 kts | 191° |
| 2026-04-30 17:50 | 42.27505 | 12.60458 | 10082 ft | 293 kts | 189° |
| 2026-04-30 17:51 | 42.21837 | 12.58384 | 9226 ft | 277 kts | 201° |
| 2026-04-30 17:52 | 42.16453 | 12.55719 | 8133 ft | 272 kts | 201° |
| 2026-04-30 17:53 | 42.07985 | 12.51530 | 6082 ft | 243 kts | 200° |
| 2026-04-30 17:54 | 42.01860 | 12.48524 | 4798 ft | 231 kts | 199° |
| 2026-04-30 17:55 | 41.95922 | 12.48411 | 3591 ft | 221 kts | 151° |
| 2026-04-30 17:56 | 41.92998 | 12.50446 | 3020 ft | 214 kts | 152° |
| 2026-04-30 17:57 | 41.89632 | 12.52783 | 3000 ft | 178 kts | 152° |
| 2026-04-30 17:58 | 41.86717 | 12.54797 | 2472 ft | 152 kts | 153° |
| 2026-04-30 17:59 | 41.83292 | 12.57164 | 1320 ft | 135 kts | 153° |
| 2026-04-30 18:00 | 41.79634 | 12.59644 | 1390 ft | 190 kts | 154° |
| 2026-04-30 18:00 | 41.75546 | 12.60983 | 3110 ft | 216 kts | 215° |
| 2026-04-30 18:01 | 41.74653 | 12.57342 | 3346 ft | 216 kts | 279° |
| 2026-04-30 18:02 | 41.77112 | 12.52447 | 3745 ft | 216 kts | 312° |
| 2026-04-30 18:02 | 41.80061 | 12.47835 | 4991 ft | 219 kts | 312° |
| 2026-04-30 18:03 | 41.83040 | 12.43179 | 5007 ft | 218 kts | 314° |
| 2026-04-30 18:04 | 41.87121 | 12.41115 | 4983 ft | 215 kts | 356° |
| 2026-04-30 18:05 | 41.93079 | 12.40421 | 4985 ft | 215 kts | 356° |
| 2026-04-30 18:06 | 41.99057 | 12.39723 | 4984 ft | 216 kts | 356° |
| 2026-04-30 18:07 | 42.05043 | 12.39014 | 4984 ft | 216 kts | 356° |
| 2026-04-30 18:08 | 42.09558 | 12.38483 | 4989 ft | 217 kts | 356° |
| 2026-04-30 18:09 | 42.12182 | 12.43529 | 4982 ft | 200 kts | 126° |
| 2026-04-30 18:10 | 42.07106 | 12.43349 | 5010 ft | 206 kts | 201° |
| 2026-04-30 18:11 | 42.01685 | 12.44623 | 4889 ft | 199 kts | 159° |
| 2026-04-30 18:11 | 41.98272 | 12.46792 | 4152 ft | 166 kts | 151° |
| 2026-04-30 18:12 | 41.95438 | 12.48755 | 3562 ft | 146 kts | 151° |
| 2026-04-30 18:13 | 41.93648 | 12.49997 | 3173 ft | 145 kts | 151° |
| 2026-04-30 18:13 | 41.91283 | 12.51636 | 2672 ft | 142 kts | 153° |
| 2026-04-30 18:14 | 41.89259 | 12.53038 | 2216 ft | 138 kts | 153° |
| 2026-04-30 18:15 | 41.86750 | 12.54774 | 1683 ft | 134 kts | 154° |
| 2026-04-30 18:15 | 41.84261 | 12.56495 | 1145 ft | 133 kts | 155° |
| 2026-04-30 18:16 | 41.82626 | 12.57624 | 796 ft | 131 kts | 154° |
| 2026-04-30 18:16 | 41.81011 | 12.58726 | 516 ft | 129 kts | 155° |
| 2026-04-30 18:17 | 41.80460 | 12.59115 | 428 ft | 129 kts | 155° |
| 2026-04-30 18:17 | 41.79877 | 12.59507 | 415 ft | 101 kts | 151° |
| 2026-04-30 18:17 | 41.79198 | 12.59989 | 414 ft | 28 kts | 153° |
| 2026-04-30 18:18 | 41.79063 | 12.60040 | 412 ft | 17 kts | 221° |
| 2026-04-30 18:18 | 41.79029 | 12.59967 | 408 ft | 0 kts | 248° |
| 2026-04-30 18:18 | 41.79027 | 12.59939 | 407 ft | 7 kts | 281° |
| 2026-04-30 18:19 | 41.79093 | 12.59863 | 407 ft | 19 kts | 334° |
| 2026-04-30 18:19 | 41.79227 | 12.59773 | 407 ft | 24 kts | 334° |
| 2026-04-30 18:19 | 41.79389 | 12.59670 | 406 ft | 28 kts | 329° |
| 2026-04-30 18:19 | 41.79514 | 12.59572 | 407 ft | 9 kts | 331° |
| 2026-04-30 18:20 | 41.79525 | 12.59502 | 406 ft | 10 kts | 234° |
| 2026-04-30 18:20 | 41.79471 | 12.59410 | 406 ft | 10 kts | 233° |
| 2026-04-30 18:20 | 41.79410 | 12.59415 | 406 ft | 12 kts | 136° |
| 2026-04-30 18:20 | 41.79333 | 12.59497 | 406 ft | 16 kts | 142° |
| 2026-04-30 18:21 | 41.79296 | 12.59554 | 406 ft | 5 kts | 84° |
| 2026-04-30 18:21 | 41.79313 | 12.59594 | 404 ft | 9 kts | 54° |
| 2026-04-30 18:21 | 41.79323 | 12.59611 | 406 ft | 0 kts | 52° |